Holland, New York
Current Conditions -  °F | °C
As of 6:54 AM on Monday 20 Oct 2014 (Local Time) from KBUF Reporting Station
Broken Clouds Broken Clouds  
Wind Chill: 40°   Ceiling: 16000
Heat Index: 44°   Visibility: 10mi
Dew Point: 34°   Wind: 8mph
Humidity: 68%   Direction: 190°S
Pressure: 29.93"   Gusts: NA
Location:  42.64°N, 78.54°W
Report Text: KBUF 201054Z 19007KT 10SM FEW033 SCT120 BKN160 BKN240 07/01 A2993 RMK AO2 SLP139 T00670011
Loading
Personal Weather Stations






























Interactive Weather Map New forecast layout! Learn more

10-Day Weather Forecast

Advertisements
Track Severe Weather on mobile